Time;durP1;ratioP1;P1;durP2;ratioP2;P2;SDS_P1;SDS_P2;PMS_P1;PMS_P2;Temp;Humidity;BMP_temperature;BMP_pressure;BME280_temperature;BME280_humidity;BME280_pressure;Samples;Min_cycle;Max_cycle;Signal;HPM_P1;HPM_P2
2023/01/28 00:02:21;;;;;;;;;;;;;;;;;;4997476;28;20487;-71
2023/01/28 00:04:47;;;;;;;;;;;;;;;;;;4996024;28;19956;-68
2023/01/28 00:07:13;;;;;;;;;;;;;;;;;;4997481;28;20021;-70
2023/01/28 00:09:38;;;;;;;;;;;;;;;;;;4997432;28;19955;-71
2023/01/28 00:12:04;;;;;;;;;;;;;;;;;;4997663;28;19954;-71
2023/01/28 00:14:30;;;;;;;;;;;;;;;;;;4997348;28;20005;-68
2023/01/28 00:16:56;;;;;;;;;;;;;;;;;;4997618;28;19982;-68
2023/01/28 00:19:22;;;;;;;;;;;;;;;;;;4997268;28;20507;-70
2023/01/28 00:21:48;;;;;;;;;;;;;;;;;;4997147;28;20045;-71
2023/01/28 00:24:14;;;;;;;;;;;;;;;;;;4997188;28;20413;-69
2023/01/28 00:26:41;;;;;;;;;;;;;;;;;;4997147;28;19954;-68
2023/01/28 00:29:07;;;;;;;;;;;;;;;;;;4997359;28;20001;-69
2023/01/28 00:31:34;;;;;;;;;;;;;;;;;;4996995;28;20360;-69
2023/01/28 00:33:59;;;;;;;;;;;;;;;;;;4996992;28;19953;-71
2023/01/28 00:36:26;;;;;;;;;;;;;;;;;;4997004;28;19962;-70
2023/01/28 00:38:51;;;;;;;;;;;;;;;;;;4996894;28;20371;-68
2023/01/28 00:41:17;;;;;;;;;;;;;;;;;;4996807;28;19971;-70
2023/01/28 00:43:44;;;;;;;;;;;;;;;;;;4997096;28;20048;-68
2023/01/28 00:46:10;;;;;;;;;;;;;;;;;;4996186;28;19954;-69
2023/01/28 00:48:35;;;;;;;;;;;;;;;;;;4996654;28;19969;-69
2023/01/28 00:51:01;;;;;;;;;;;;;;;;;;4996308;28;19989;-68
2023/01/28 00:53:27;;;;;;;;;;;;;;;;;;4997209;28;20452;-70
2023/01/28 00:55:54;;;;;;;;;;;;;;;;;;4996640;28;19955;-72
2023/01/28 00:58:19;;;;;;;;;;;;;;;;;;4996586;28;19956;-70
2023/01/28 01:00:45;;;;;;;;;;;;;;;;;;4996727;28;19973;-70
2023/01/28 01:03:11;;;;;;;;;;;;;;;;;;4996473;28;20459;-70
2023/01/28 01:05:37;;;;;;;;;;;;;;;;;;4996930;28;20397;-69
2023/01/28 01:08:03;;;;;;;;;;;;;;;;;;4996355;28;19997;-71
2023/01/28 01:10:29;;;;;;;;;;;;;;;;;;4996637;28;20003;-70
2023/01/28 01:12:58;;;;;;;;;;;;;;;;;;4996555;28;19950;-68
2023/01/28 01:15:23;;;;;;;;;;;;;;;;;;4996899;28;20106;-68
2023/01/28 01:17:49;;;;;;;;;;;;;;;;;;4996212;28;19950;-71
2023/01/28 01:20:15;;;;;;;;;;;;;;;;;;4996657;28;20453;-70
2023/01/28 01:22:41;;;;;;;;;;;;;;;;;;4996116;28;20312;-71
2023/01/28 01:25:07;;;;;;;;;;;;;;;;;;4996072;28;20044;-68
2023/01/28 01:27:33;;;;;;;;;;;;;;;;;;4996033;28;19950;-67
2023/01/28 01:29:59;;;;;;;;;;;;;;;;;;4996278;28;19953;-69
2023/01/28 01:32:25;;;;;;;;;;;;;;;;;;4995921;28;20411;-71
2023/01/28 01:34:51;;;;;;;;;;;;;;;;;;4995909;28;19960;-69
2023/01/28 01:37:16;;;;;;;;;;;;;;;;;;4996390;28;20315;-72
2023/01/28 01:39:42;;;;;;;;;;;;;;;;;;4995809;28;20039;-70
2023/01/28 01:42:08;;;;;;;;;;;;;;;;;;4995944;28;20033;-71
2023/01/28 01:44:34;;;;;;;;;;;;;;;;;;4995663;28;19958;-70
2023/01/28 01:47:00;;;;;;;;;;;;;;;;;;4995562;28;19968;-71
2023/01/28 01:49:26;;;;;;;;;;;;;;;;;;4995399;28;19993;-69
2023/01/28 01:51:52;;;;;;;;;;;;;;;;;;4993991;28;19997;-67
2023/01/28 01:54:18;;;;;;;;;;;;;;;;;;4995496;28;19955;-72
2023/01/28 01:56:44;;;;;;;;;;;;;;;;;;4995428;28;19957;-71
2023/01/28 01:59:10;;;;;;;;;;;;;;;;;;4994885;28;19955;-70
2023/01/28 02:01:35;;;;;;;;;;;;;;;;;;4995567;28;20022;-70
2023/01/28 02:04:01;;;;;;;;;;;;;;;;;;4995333;28;19955;-69
2023/01/28 02:06:27;;;;;;;;;;;;;;;;;;4995279;28;19960;-71
2023/01/28 02:08:54;;;;;;;;;;;;;;;;;;4995252;28;20000;-69
2023/01/28 02:11:20;;;;;;;;;;;;;;;;;;4995761;28;19951;-71
2023/01/28 02:13:46;;;;;;;;;;;;;;;;;;4995166;28;20308;-70
2023/01/28 02:16:12;;;;;;;;;;;;;;;;;;4995658;28;19950;-71
2023/01/28 02:18:38;;;;;;;;;;;;;;;;;;4995046;28;19953;-70
2023/01/28 02:21:04;;;;;;;;;;;;;;;;;;4995195;28;19999;-69
2023/01/28 02:23:30;;;;;;;;;;;;;;;;;;4995216;28;19954;-70
2023/01/28 02:25:56;;;;;;;;;;;;;;;;;;4993445;28;19957;-69
2023/01/28 02:28:23;;;;;;;;;;;;;;;;;;4995152;28;19953;-69
2023/01/28 02:30:49;;;;;;;;;;;;;;;;;;4993538;28;19953;-68
2023/01/28 02:33:15;;;;;;;;;;;;;;;;;;4995327;28;19960;-70
2023/01/28 02:35:41;;;;;;;;;;;;;;;;;;4994771;28;19949;-67
2023/01/28 02:38:07;;;;;;;;;;;;;;;;;;4994746;28;19953;-69
2023/01/28 02:40:33;;;;;;;;;;;;;;;;;;4994928;28;19979;-71
2023/01/28 02:42:59;;;;;;;;;;;;;;;;;;4994974;28;20038;-68
2023/01/28 02:47:56;;;;;;;;;;;;;;;;;;4994616;28;19953;-71
2023/01/28 02:48:10;;;;;;;;;;;;;;;;;;4994352;28;20027;-71
2023/01/28 02:50:36;;;;;;;;;;;;;;;;;;4994283;28;19991;-68
2023/01/28 02:55:47;;;;;;;;;;;;;;;;;;4994536;28;19956;-69
2023/01/28 02:58:12;;;;;;;;;;;;;;;;;;4994449;28;19957;-68
2023/01/28 03:00:38;;;;;;;;;;;;;;;;;;4994374;28;20490;-70
2023/01/28 03:03:04;;;;;;;;;;;;;;;;;;4994956;28;20425;-69
2023/01/28 03:05:30;;;;;;;;;;;;;;;;;;4992954;28;19955;-69
2023/01/28 03:07:56;;;;;;;;;;;;;;;;;;4994344;28;19951;-68
2023/01/28 03:10:22;;;;;;;;;;;;;;;;;;4994092;28;19999;-69
2023/01/28 03:37:30;;;;;;;;;;;;;;;;;;4993836;28;20046;-71
2023/01/28 03:39:57;;;;;;;;;;;;;;;;;;4994089;28;20348;-68
2023/01/28 03:42:22;;;;;;;;;;;;;;;;;;4994009;28;20024;-68
2023/01/28 03:44:51;;;;;;;;;;;;;;;;;;4992538;28;19955;-70
2023/01/28 03:47:17;;;;;;;;;;;;;;;;;;4993971;28;19969;-69
2023/01/28 03:49:44;;;;;;;;;;;;;;;;;;4994019;28;19989;-71
2023/01/28 03:52:10;;;;;;;;;;;;;;;;;;4993996;28;19961;-69
2023/01/28 03:54:36;;;;;;;;;;;;;;;;;;4994217;28;19965;-69
2023/01/28 03:57:02;;;;;;;;;;;;;;;;;;4993922;28;19957;-70
2023/01/28 03:59:28;;;;;;;;;;;;;;;;;;4994488;28;19956;-70
2023/01/28 04:01:54;;;;;;;;;;;;;;;;;;4993800;28;20070;-69
2023/01/28 04:04:23;;;;;;;;;;;;;;;;;;4994404;28;20449;-70
2023/01/28 04:06:49;;;;;;;;;;;;;;;;;;4993822;28;20067;-69
2023/01/28 04:09:15;;;;;;;;;;;;;;;;;;4994387;28;20405;-70
2023/01/28 04:11:41;;;;;;;;;;;;;;;;;;4993801;28;20323;-71
2023/01/28 04:14:07;;;;;;;;;;;;;;;;;;4993795;28;19967;-70
2023/01/28 04:16:32;;;;;;;;;;;;;;;;;;4994036;28;19988;-71
2023/01/28 04:18:58;;;;;;;;;;;;;;;;;;4993702;28;19960;-67
2023/01/28 04:21:24;;;;;;;;;;;;;;;;;;4995579;28;19976;-71
2023/01/28 04:23:50;;;;;;;;;;;;;;;;;;4997522;28;19959;-70
2023/01/28 04:26:16;;;;;;;;;;;;;;;;;;4997164;28;19960;-68
2023/01/28 04:28:42;;;;;;;;;;;;;;;;;;4995864;28;19986;-70
2023/01/28 04:31:08;;;;;;;;;;;;;;;;;;4997117;28;19955;-70
2023/01/28 04:33:34;;;;;;;;;;;;;;;;;;4997592;28;20548;-68
2023/01/28 04:35:59;;;;;;;;;;;;;;;;;;4997241;28;19951;-70
2023/01/28 04:38:25;;;;;;;;;;;;;;;;;;4996927;28;20421;-69
2023/01/28 04:40:51;;;;;;;;;;;;;;;;;;4996826;28;19980;-71
2023/01/28 04:43:18;;;;;;;;;;;;;;;;;;4997392;28;20418;-68
2023/01/28 04:45:44;;;;;;;;;;;;;;;;;;4996787;28;19956;-70
2023/01/28 04:48:10;;;;;;;;;;;;;;;;;;4996757;28;20016;-70
2023/01/28 04:50:36;;;;;;;;;;;;;;;;;;4996593;28;19994;-70
2023/01/28 04:53:02;;;;;;;;;;;;;;;;;;4996714;28;19959;-69
2023/01/28 04:55:28;;;;;;;;;;;;;;;;;;4996689;28;20381;-70
2023/01/28 04:57:54;;;;;;;;;;;;;;;;;;4996609;28;19957;-68
2023/01/28 05:00:20;;;;;;;;;;;;;;;;;;4996762;28;19989;-69
2023/01/28 05:02:45;;;;;;;;;;;;;;;;;;4995262;28;19958;-68
2023/01/28 05:05:11;;;;;;;;;;;;;;;;;;4996710;28;19956;-69
2023/01/28 05:07:37;;;;;;;;;;;;;;;;;;4996398;28;19960;-68
2023/01/28 05:10:03;;;;;;;;;;;;;;;;;;4996370;28;19953;-70
2023/01/28 05:12:31;;;;;;;;;;;;;;;;;;4996630;28;20324;-69
2023/01/28 05:14:59;;;;;;;;;;;;;;;;;;4995044;28;19956;-68
2023/01/28 05:17:25;;;;;;;;;;;;;;;;;;4996525;28;20350;-69
2023/01/28 05:19:51;;;;;;;;;;;;;;;;;;4996485;28;19955;-69
2023/01/28 05:22:17;;;;;;;;;;;;;;;;;;4996086;28;19973;-70
2023/01/28 05:24:42;;;;;;;;;;;;;;;;;;4996100;28;19956;-71
2023/01/28 05:27:08;;;;;;;;;;;;;;;;;;4996348;28;19954;-69
2023/01/28 05:29:34;;;;;;;;;;;;;;;;;;4996036;28;20438;-68
2023/01/28 05:32:00;;;;;;;;;;;;;;;;;;4996179;28;19960;-68
2023/01/28 05:34:26;;;;;;;;;;;;;;;;;;4994620;28;20043;-69
2023/01/28 05:36:52;;;;;;;;;;;;;;;;;;4995880;28;19953;-68
2023/01/28 05:39:18;;;;;;;;;;;;;;;;;;4994602;28;19954;-71
2023/01/28 05:41:44;;;;;;;;;;;;;;;;;;4995772;28;19978;-68
2023/01/28 05:44:10;;;;;;;;;;;;;;;;;;4994455;28;20394;-69
2023/01/28 05:46:35;;;;;;;;;;;;;;;;;;4995867;28;19961;-69
2023/01/28 05:49:01;;;;;;;;;;;;;;;;;;4995464;28;20408;-70
2023/01/28 05:51:27;;;;;;;;;;;;;;;;;;4995879;28;19964;-69
2023/01/28 05:53:53;;;;;;;;;;;;;;;;;;4996114;28;19958;-68
2023/01/28 05:56:19;;;;;;;;;;;;;;;;;;4995508;28;19981;-70
2023/01/28 05:58:45;;;;;;;;;;;;;;;;;;4995706;28;19954;-69
2023/01/28 06:01:11;;;;;;;;;;;;;;;;;;4995314;28;20456;-70
2023/01/28 06:03:38;;;;;;;;;;;;;;;;;;4995363;28;19975;-68
2023/01/28 06:06:04;;;;;;;;;;;;;;;;;;4993836;28;19959;-69
2023/01/28 06:08:29;;;;;;;;;;;;;;;;;;4995243;28;19960;-70
2023/01/28 06:10:55;;;;;;;;;;;;;;;;;;4995515;28;19953;-68
2023/01/28 06:13:21;;;;;;;;;;;;;;;;;;4995208;28;20040;-71
2023/01/28 06:15:47;;;;;;;;;;;;;;;;;;4995178;28;19952;-68
2023/01/28 06:18:13;;;;;;;;;;;;;;;;;;4995099;28;20061;-69
2023/01/28 06:20:39;;;;;;;;;;;;;;;;;;4994965;28;20021;-68
2023/01/28 06:23:05;;;;;;;;;;;;;;;;;;4995277;28;19958;-70
2023/01/28 06:25:31;;;;;;;;;;;;;;;;;;4995250;28;19953;-67
2023/01/28 06:27:57;;;;;;;;;;;;;;;;;;4995473;28;20386;-71
2023/01/28 06:30:22;;;;;;;;;;;;;;;;;;4994893;28;19954;-68
2023/01/28 06:32:48;;;;;;;;;;;;;;;;;;4995092;28;19973;-69
2023/01/28 06:35:14;;;;;;;;;;;;;;;;;;4993323;28;20323;-72
2023/01/28 06:37:40;;;;;;;;;;;;;;;;;;4994785;28;19963;-68
2023/01/28 06:40:06;;;;;;;;;;;;;;;;;;4994994;28;19958;-68
2023/01/28 06:42:32;;;;;;;;;;;;;;;;;;4994908;28;19981;-71
2023/01/28 06:44:58;;;;;;;;;;;;;;;;;;4994218;28;20042;-69
2023/01/28 06:47:24;;;;;;;;;;;;;;;;;;4994624;28;20002;-71
2023/01/28 06:49:50;;;;;;;;;;;;;;;;;;4994581;28;19991;-68
2023/01/28 06:52:15;;;;;;;;;;;;;;;;;;4995153;28;19961;-69
2023/01/28 06:54:41;;;;;;;;;;;;;;;;;;4994521;28;19961;-68
2023/01/28 06:57:07;;;;;;;;;;;;;;;;;;4994521;28;20326;-69
2023/01/28 06:59:33;;;;;;;;;;;;;;;;;;4994501;28;20045;-71
2023/01/28 07:01:59;;;;;;;;;;;;;;;;;;4994645;28;19997;-71
2023/01/28 07:04:25;;;;;;;;;;;;;;;;;;4994409;28;20410;-68
2023/01/28 07:06:51;;;;;;;;;;;;;;;;;;4994412;28;19953;-70
2023/01/28 07:09:17;;;;;;;;;;;;;;;;;;4994360;28;19958;-68
2023/01/28 07:11:42;;;;;;;;;;;;;;;;;;4994364;28;20008;-69
2023/01/28 07:14:08;;;;;;;;;;;;;;;;;;4994610;28;19955;-70
2023/01/28 07:16:34;;;;;;;;;;;;;;;;;;4994593;28;19962;-68
2023/01/28 07:19:00;;;;;;;;;;;;;;;;;;4994302;28;19955;-69
2023/01/28 07:21:26;;;;;;;;;;;;;;;;;;4994206;28;20428;-69
2023/01/28 07:23:52;;;;;;;;;;;;;;;;;;4994515;28;19960;-69
2023/01/28 07:26:18;;;;;;;;;;;;;;;;;;4994078;28;19953;-68
2023/01/28 07:28:44;;;;;;;;;;;;;;;;;;4994743;28;19964;-69
2023/01/28 07:31:10;;;;;;;;;;;;;;;;;;4994400;28;19950;-70
2023/01/28 07:33:37;;;;;;;;;;;;;;;;;;4994695;28;19978;-70
2023/01/28 07:36:03;;;;;;;;;;;;;;;;;;4994184;28;19961;-70
2023/01/28 07:38:29;;;;;;;;;;;;;;;;;;4994367;28;19953;-70
2023/01/28 07:40:55;;;;;;;;;;;;;;;;;;4993978;28;20421;-69
2023/01/28 07:43:21;;;;;;;;;;;;;;;;;;4994600;28;20396;-71
2023/01/28 07:45:47;;;;;;;;;;;;;;;;;;4994324;28;20007;-68
2023/01/28 07:48:13;;;;;;;;;;;;;;;;;;4993981;28;19972;-70
2023/01/28 07:50:39;;;;;;;;;;;;;;;;;;4993815;28;20402;-71
2023/01/28 07:53:05;;;;;;;;;;;;;;;;;;4994305;28;20011;-71
2023/01/28 07:55:31;;;;;;;;;;;;;;;;;;4994345;28;19953;-68
2023/01/28 07:57:56;;;;;;;;;;;;;;;;;;4997728;28;19951;-70
2023/01/28 08:00:22;;;;;;;;;;;;;;;;;;4997651;28;19950;-71
2023/01/28 08:02:48;;;;;;;;;;;;;;;;;;4997614;28;19990;-69
2023/01/28 08:05:14;;;;;;;;;;;;;;;;;;4997888;28;19965;-69
2023/01/28 08:07:40;;;;;;;;;;;;;;;;;;4997807;28;19955;-69
2023/01/28 08:10:06;;;;;;;;;;;;;;;;;;4997476;28;19954;-70
2023/01/28 08:12:33;;;;;;;;;;;;;;;;;;4998005;28;20506;-67
2023/01/28 08:14:59;;;;;;;;;;;;;;;;;;4997422;28;20041;-68
2023/01/28 08:17:25;;;;;;;;;;;;;;;;;;4997631;28;19994;-69
2023/01/28 08:19:50;;;;;;;;;;;;;;;;;;4995984;28;20012;-68
2023/01/28 08:22:16;;;;;;;;;;;;;;;;;;4997184;28;20036;-70
2023/01/28 08:24:42;;;;;;;;;;;;;;;;;;4997215;28;19953;-67
2023/01/28 08:27:08;;;;;;;;;;;;;;;;;;4997734;28;19961;-70
2023/01/28 08:29:34;;;;;;;;;;;;;;;;;;4995888;28;20011;-71
2023/01/28 08:32:00;;;;;;;;;;;;;;;;;;4997081;28;20405;-69
2023/01/28 08:34:26;;;;;;;;;;;;;;;;;;4997044;28;19995;-70
2023/01/28 08:36:52;;;;;;;;;;;;;;;;;;4996997;28;20044;-69
2023/01/28 08:39:18;;;;;;;;;;;;;;;;;;4997235;28;20313;-68
2023/01/28 08:41:43;;;;;;;;;;;;;;;;;;4995606;28;20063;-71
2023/01/28 08:44:09;;;;;;;;;;;;;;;;;;4996887;28;19953;-70
2023/01/28 08:46:35;;;;;;;;;;;;;;;;;;4996769;28;19953;-69
2023/01/28 08:49:01;;;;;;;;;;;;;;;;;;4995364;28;19968;-68
2023/01/28 08:51:27;;;;;;;;;;;;;;;;;;4997397;28;20008;-68
2023/01/28 08:53:53;;;;;;;;;;;;;;;;;;4996743;28;20009;-70
2023/01/28 08:56:19;;;;;;;;;;;;;;;;;;4997230;28;20479;-69
2023/01/28 08:58:45;;;;;;;;;;;;;;;;;;4996577;28;20051;-71
2023/01/28 09:01:11;;;;;;;;;;;;;;;;;;4996732;28;20062;-68
2023/01/28 09:03:36;;;;;;;;;;;;;;;;;;4996566;28;20330;-68
2023/01/28 09:06:02;;;;;;;;;;;;;;;;;;4996376;28;19955;-68
2023/01/28 09:08:28;;;;;;;;;;;;;;;;;;4996462;28;19955;-72
2023/01/28 09:10:54;;;;;;;;;;;;;;;;;;4996377;28;20312;-69
2023/01/28 09:13:20;;;;;;;;;;;;;;;;;;4996403;28;20049;-69
2023/01/28 09:15:46;;;;;;;;;;;;;;;;;;4996868;28;20388;-70
2023/01/28 09:18:12;;;;;;;;;;;;;;;;;;4996419;28;19952;-71
2023/01/28 09:20:38;;;;;;;;;;;;;;;;;;4995933;28;19951;-74
2023/01/28 09:23:04;;;;;;;;;;;;;;;;;;4996467;28;20115;-70
2023/01/28 09:25:30;;;;;;;;;;;;;;;;;;4996095;28;19952;-72
2023/01/28 09:27:56;;;;;;;;;;;;;;;;;;4996316;28;19956;-70
2023/01/28 09:30:22;;;;;;;;;;;;;;;;;;4996003;28;19959;-69
2023/01/28 09:32:47;;;;;;;;;;;;;;;;;;4996231;28;20004;-69
2023/01/28 09:35:14;;;;;;;;;;;;;;;;;;4995910;28;20408;-69
2023/01/28 09:37:40;;;;;;;;;;;;;;;;;;4995837;28;19954;-71
2023/01/28 09:40:05;;;;;;;;;;;;;;;;;;4996082;28;20004;-68
2023/01/28 09:42:31;;;;;;;;;;;;;;;;;;4995733;28;20365;-71
2023/01/28 09:44:57;;;;;;;;;;;;;;;;;;4996228;28;20425;-72
2023/01/28 09:47:23;;;;;;;;;;;;;;;;;;4995465;28;19975;-70
2023/01/28 09:49:49;;;;;;;;;;;;;;;;;;4995796;28;19993;-71
2023/01/28 09:52:15;;;;;;;;;;;;;;;;;;4995556;28;19952;-72
2023/01/28 09:54:41;;;;;;;;;;;;;;;;;;4995572;28;19959;-69
2023/01/28 09:57:08;;;;;;;;;;;;;;;;;;4995807;28;19957;-71
2023/01/28 09:59:35;;;;;;;;;;;;;;;;;;4995456;28;19961;-73
2023/01/28 10:02:01;;;;;;;;;;;;;;;;;;4995265;28;20027;-70
2023/01/28 10:04:26;;;;;;;;;;;;;;;;;;4995613;28;19957;-71
2023/01/28 10:06:52;;;;;;;;;;;;;;;;;;4995567;28;19954;-70
2023/01/28 10:09:19;;;;;;;;;;;;;;;;;;4995295;28;19986;-70
2023/01/28 10:17:05;;;;;;;;;;;;;;;;;;4995212;28;20069;-80
2023/01/28 10:19:31;;;;;;;;;;;;;;;;;;5033602;28;20446;-76
2023/01/28 10:21:57;;;;;;;;;;;;;;;;;;5034303;28;20000;-77
2023/01/28 10:24:22;;;;;;;;;;;;;;;;;;5034447;28;20016;-76
2023/01/28 10:26:48;;;;;;;;;;;;;;;;;;5034288;28;19951;-77
2023/01/28 10:29:14;;;;;;;;;;;;;;;;;;5034421;28;19954;-74
2023/01/28 10:31:40;;;;;;;;;;;;;;;;;;5034325;28;20047;-76
2023/01/28 10:34:06;;;;;;;;;;;;;;;;;;5034178;28;19953;-75
2023/01/28 10:36:32;;;;;;;;;;;;;;;;;;5034758;28;19954;-73
2023/01/28 10:38:58;;;;;;;;;;;;;;;;;;5034406;28;19954;-71
2023/01/28 10:41:25;;;;;;;;;;;;;;;;;;5034340;28;19973;-73
2023/01/28 10:43:51;;;;;;;;;;;;;;;;;;5034560;28;20021;-70
2023/01/28 10:46:17;;;;;;;;;;;;;;;;;;5033722;28;19954;-70
2023/01/28 10:48:43;;;;;;;;;;;;;;;;;;5032228;28;20370;-72
2023/01/28 10:51:09;;;;;;;;;;;;;;;;;;5031330;28;19957;-71
2023/01/28 10:53:35;;;;;;;;;;;;;;;;;;5032047;28;20367;-70
2023/01/28 10:56:01;;;;;;;;;;;;;;;;;;5032270;28;19960;-71
2023/01/28 10:58:27;;;;;;;;;;;;;;;;;;5032781;28;19952;-69
2023/01/28 11:00:53;;;;;;;;;;;;;;;;;;5037128;28;20471;-70
2023/01/28 11:03:19;;;;;;;;;;;;;;;;;;5040675;28;19957;-71
2023/01/28 11:05:45;;;;;;;;;;;;;;;;;;5041374;28;19954;-71
2023/01/28 11:08:11;;;;;;;;;;;;;;;;;;5034429;28;20424;-70
2023/01/28 11:10:37;;;;;;;;;;;;;;;;;;5033956;28;19964;-72
2023/01/28 11:13:03;;;;;;;;;;;;;;;;;;5028705;28;20526;-70
2023/01/28 11:15:29;;;;;;;;;;;;;;;;;;5014001;28;20107;-70
2023/01/28 11:17:55;;;;;;;;;;;;;;;;;;5014244;28;19965;-71
2023/01/28 11:20:21;;;;;;;;;;;;;;;;;;5013877;28;19962;-71
2023/01/28 11:22:47;;;;;;;;;;;;;;;;;;5013666;28;19985;-69
2023/01/28 11:25:12;;;;;;;;;;;;;;;;;;5013867;28;19951;-71
2023/01/28 11:27:38;;;;;;;;;;;;;;;;;;5014022;28;19992;-70
2023/01/28 11:30:06;;;;;;;;;;;;;;;;;;5015352;28;19954;-70
2023/01/28 11:32:32;;;;;;;;;;;;;;;;;;5017820;28;19952;-70
2023/01/28 11:34:59;;;;;;;;;;;;;;;;;;5017750;28;19961;-69
2023/01/28 11:37:25;;;;;;;;;;;;;;;;;;5017761;28;19954;-72
2023/01/28 11:39:50;;;;;;;;;;;;;;;;;;5017948;28;19959;-70
2023/01/28 11:42:16;;;;;;;;;;;;;;;;;;5017581;28;20460;-70
2023/01/28 11:44:42;;;;;;;;;;;;;;;;;;5017426;28;19948;-71
2023/01/28 11:47:08;;;;;;;;;;;;;;;;;;5018126;28;20307;-71
2023/01/28 11:49:34;;;;;;;;;;;;;;;;;;5017347;28;19953;-72
2023/01/28 11:52:00;;;;;;;;;;;;;;;;;;5017731;28;19951;-70
2023/01/28 11:54:26;;;;;;;;;;;;;;;;;;5017669;28;19954;-72
2023/01/28 11:56:52;;;;;;;;;;;;;;;;;;5017757;28;20021;-72
2023/01/28 11:59:18;;;;;;;;;;;;;;;;;;5018178;28;20430;-72
2023/01/28 12:01:44;;;;;;;;;;;;;;;;;;5018087;28;19978;-69
2023/01/28 12:04:10;;;;;;;;;;;;;;;;;;5017538;28;19955;-71
2023/01/28 12:06:36;;;;;;;;;;;;;;;;;;5017760;28;19957;-70
2023/01/28 12:09:05;;;;;;;;;;;;;;;;;;4999560;28;20016;-72
2023/01/28 12:14:16;;;;;;;;;;;;;;;;;;5017558;28;19974;-69
2023/01/28 12:16:42;;;;;;;;;;;;;;;;;;5017343;28;19983;-71
2023/01/28 12:19:08;;;;;;;;;;;;;;;;;;5016977;28;19956;-71
2023/01/28 12:21:34;;;;;;;;;;;;;;;;;;5017140;28;20120;-71
2023/01/28 12:23:59;;;;;;;;;;;;;;;;;;5016893;28;20003;-70
2023/01/28 12:26:25;;;;;;;;;;;;;;;;;;5016875;28;19958;-70
2023/01/28 12:28:51;;;;;;;;;;;;;;;;;;5016840;28;19988;-71
2023/01/28 12:31:17;;;;;;;;;;;;;;;;;;5017012;28;19960;-72
2023/01/28 12:33:43;;;;;;;;;;;;;;;;;;5016774;28;19958;-72
2023/01/28 12:36:09;;;;;;;;;;;;;;;;;;5016924;28;19959;-71
2023/01/28 12:38:35;;;;;;;;;;;;;;;;;;5016888;28;19952;-71
2023/01/28 12:41:01;;;;;;;;;;;;;;;;;;5016354;28;20426;-70
2023/01/28 12:43:27;;;;;;;;;;;;;;;;;;5016204;28;19958;-71
2023/01/28 12:45:53;;;;;;;;;;;;;;;;;;5016488;28;20003;-72
2023/01/28 12:48:18;;;;;;;;;;;;;;;;;;5016981;28;20413;-71
2023/01/28 12:50:44;;;;;;;;;;;;;;;;;;5016635;28;19949;-70
2023/01/28 12:53:10;;;;;;;;;;;;;;;;;;5016375;28;19954;-70
2023/01/28 12:55:37;;;;;;;;;;;;;;;;;;5016826;28;20311;-72
2023/01/28 12:58:03;;;;;;;;;;;;;;;;;;5016534;28;20503;-71
2023/01/28 13:00:29;;;;;;;;;;;;;;;;;;5016179;28;20042;-71
2023/01/28 13:02:55;;;;;;;;;;;;;;;;;;5016965;28;19953;-71
2023/01/28 13:05:20;;;;;;;;;;;;;;;;;;5016116;28;20039;-72
2023/01/28 13:07:46;;;;;;;;;;;;;;;;;;5016908;28;19969;-68
2023/01/28 13:10:12;;;;;;;;;;;;;;;;;;5016013;28;20003;-73
2023/01/28 13:12:38;;;;;;;;;;;;;;;;;;5016406;28;20399;-73
2023/01/28 13:15:04;;;;;;;;;;;;;;;;;;5015963;28;19955;-71
2023/01/28 13:17:30;;;;;;;;;;;;;;;;;;5016177;28;19961;-70
2023/01/28 13:19:56;;;;;;;;;;;;;;;;;;5015854;28;20310;-72
2023/01/28 13:22:22;;;;;;;;;;;;;;;;;;5015740;28;20017;-70
2023/01/28 13:24:47;;;;;;;;;;;;;;;;;;5016015;28;20038;-71
2023/01/28 13:27:15;;;;;;;;;;;;;;;;;;5015965;28;19957;-70
2023/01/28 13:29:41;;;;;;;;;;;;;;;;;;5015861;28;20046;-72
2023/01/28 13:32:06;;;;;;;;;;;;;;;;;;5015608;28;20044;-70
2023/01/28 13:34:32;;;;;;;;;;;;;;;;;;5015832;28;19992;-70
2023/01/28 13:36:58;;;;;;;;;;;;;;;;;;5015529;28;20422;-71
2023/01/28 13:39:24;;;;;;;;;;;;;;;;;;5015687;28;19959;-70
2023/01/28 13:41:50;;;;;;;;;;;;;;;;;;5015356;28;19974;-72
2023/01/28 13:44:16;;;;;;;;;;;;;;;;;;5015630;28;19954;-72
2023/01/28 13:46:42;;;;;;;;;;;;;;;;;;5015302;28;19973;-70
2023/01/28 13:49:08;;;;;;;;;;;;;;;;;;5015298;28;20009;-72
2023/01/28 13:51:34;;;;;;;;;;;;;;;;;;5015493;28;19957;-71
2023/01/28 13:53:59;;;;;;;;;;;;;;;;;;4997628;28;20056;-73
2023/01/28 13:56:25;;;;;;;;;;;;;;;;;;5015392;28;20000;-71
2023/01/28 13:58:51;;;;;;;;;;;;;;;;;;5015458;28;19950;-72
2023/01/28 14:01:17;;;;;;;;;;;;;;;;;;5015330;28;20447;-71
2023/01/28 14:03:43;;;;;;;;;;;;;;;;;;5015029;28;19956;-70
2023/01/28 14:06:09;;;;;;;;;;;;;;;;;;5014988;28;19976;-70
2023/01/28 14:08:35;;;;;;;;;;;;;;;;;;5015006;28;19954;-71
2023/01/28 14:11:01;;;;;;;;;;;;;;;;;;5014921;28;19980;-72
2023/01/28 14:13:27;;;;;;;;;;;;;;;;;;5015178;28;19977;-72
2023/01/28 14:15:53;;;;;;;;;;;;;;;;;;5014762;28;20006;-69
2023/01/28 14:18:19;;;;;;;;;;;;;;;;;;5015332;28;19954;-71
2023/01/28 14:20:45;;;;;;;;;;;;;;;;;;5014950;28;19961;-71
2023/01/28 14:23:11;;;;;;;;;;;;;;;;;;5015527;28;20459;-72
2023/01/28 14:25:37;;;;;;;;;;;;;;;;;;5014662;28;19959;-70
2023/01/28 14:28:02;;;;;;;;;;;;;;;;;;5014892;28;19959;-70
2023/01/28 14:30:28;;;;;;;;;;;;;;;;;;5014544;28;19999;-71
2023/01/28 14:32:54;;;;;;;;;;;;;;;;;;5014547;28;19993;-70
2023/01/28 14:35:20;;;;;;;;;;;;;;;;;;5015019;28;20457;-72
2023/01/28 14:37:46;;;;;;;;;;;;;;;;;;5014417;28;20037;-68
2023/01/28 14:40:12;;;;;;;;;;;;;;;;;;5014414;28;19954;-70
2023/01/28 14:42:38;;;;;;;;;;;;;;;;;;5014824;28;19979;-71
2023/01/28 14:45:04;;;;;;;;;;;;;;;;;;5014343;28;19958;-70
2023/01/28 14:47:29;;;;;;;;;;;;;;;;;;5014842;28;19991;-71
2023/01/28 14:49:55;;;;;;;;;;;;;;;;;;5014521;28;19951;-72
2023/01/28 14:52:21;;;;;;;;;;;;;;;;;;4996585;28;19966;-70
2023/01/28 14:54:47;;;;;;;;;;;;;;;;;;5014492;28;20005;-71
2023/01/28 14:57:13;;;;;;;;;;;;;;;;;;5014172;28;19964;-71
2023/01/28 14:59:39;;;;;;;;;;;;;;;;;;5014424;28;20034;-72
2023/01/28 15:02:05;;;;;;;;;;;;;;;;;;5014053;28;20069;-72
2023/01/28 15:04:31;;;;;;;;;;;;;;;;;;5013966;28;19956;-72
2023/01/28 15:06:57;;;;;;;;;;;;;;;;;;5014307;28;19958;-71
2023/01/28 15:09:23;;;;;;;;;;;;;;;;;;5014535;28;20003;-71
2023/01/28 15:11:48;;;;;;;;;;;;;;;;;;5014011;28;20313;-71
2023/01/28 15:14:14;;;;;;;;;;;;;;;;;;5013966;28;19973;-71
2023/01/28 15:16:40;;;;;;;;;;;;;;;;;;5013744;28;20449;-70
2023/01/28 15:19:06;;;;;;;;;;;;;;;;;;5014226;28;20040;-69
2023/01/28 15:21:34;;;;;;;;;;;;;;;;;;5013854;28;20460;-71
2023/01/28 15:24:01;;;;;;;;;;;;;;;;;;5014115;28;20100;-70
2023/01/28 15:26:27;;;;;;;;;;;;;;;;;;5014116;28;19964;-71
2023/01/28 15:28:53;;;;;;;;;;;;;;;;;;5014378;28;20337;-70
2023/01/28 15:31:19;;;;;;;;;;;;;;;;;;5013812;28;20320;-72
2023/01/28 15:33:45;;;;;;;;;;;;;;;;;;5013767;28;19952;-70
2023/01/28 15:36:11;;;;;;;;;;;;;;;;;;5013741;28;19965;-70
2023/01/28 15:38:37;;;;;;;;;;;;;;;;;;5014014;28;19951;-69
2023/01/28 15:41:03;;;;;;;;;;;;;;;;;;5013922;28;19971;-71
2023/01/28 15:43:29;;;;;;;;;;;;;;;;;;5013685;28;19960;-73
2023/01/28 15:45:54;;;;;;;;;;;;;;;;;;5013944;28;19977;-70
2023/01/28 15:48:20;;;;;;;;;;;;;;;;;;5013625;28;19956;-70
2023/01/28 15:50:46;;;;;;;;;;;;;;;;;;5013654;28;20004;-72
2023/01/28 15:53:14;;;;;;;;;;;;;;;;;;5013170;28;20218;-72
2023/01/28 15:55:40;;;;;;;;;;;;;;;;;;5013642;28;20410;-71
2023/01/28 15:58:06;;;;;;;;;;;;;;;;;;5013882;28;19954;-70
2023/01/28 16:00:32;;;;;;;;;;;;;;;;;;5013565;28;19958;-72
2023/01/28 16:02:58;;;;;;;;;;;;;;;;;;5013695;28;19976;-72
2023/01/28 16:05:23;;;;;;;;;;;;;;;;;;5013493;28;19957;-72
2023/01/28 16:07:49;;;;;;;;;;;;;;;;;;5013747;28;19954;-70
2023/01/28 16:10:15;;;;;;;;;;;;;;;;;;5013744;28;20053;-71
2023/01/28 16:12:41;;;;;;;;;;;;;;;;;;5013588;28;19957;-69
2023/01/28 16:15:07;;;;;;;;;;;;;;;;;;5013206;28;19982;-73
2023/01/28 16:17:33;;;;;;;;;;;;;;;;;;5015598;28;20123;-70
2023/01/28 16:19:59;;;;;;;;;;;;;;;;;;5017272;28;20354;-70
2023/01/28 16:22:25;;;;;;;;;;;;;;;;;;5017412;28;20010;-70
2023/01/28 16:24:51;;;;;;;;;;;;;;;;;;5016897;28;20324;-70
2023/01/28 16:27:17;;;;;;;;;;;;;;;;;;5016793;28;20436;-71
2023/01/28 16:29:43;;;;;;;;;;;;;;;;;;5017338;28;19958;-71
2023/01/28 16:32:09;;;;;;;;;;;;;;;;;;5016742;28;19992;-71
2023/01/28 16:34:35;;;;;;;;;;;;;;;;;;5016725;28;19960;-72
2023/01/28 16:37:01;;;;;;;;;;;;;;;;;;5016975;28;19950;-71
2023/01/28 16:39:27;;;;;;;;;;;;;;;;;;5016611;28;19958;-71
2023/01/28 16:41:55;;;;;;;;;;;;;;;;;;5016508;28;19979;-70
2023/01/28 16:44:21;;;;;;;;;;;;;;;;;;5016796;28;19958;-71
2023/01/28 16:46:47;;;;;;;;;;;;;;;;;;5016777;28;19954;-70
2023/01/28 16:49:14;;;;;;;;;;;;;;;;;;5016723;28;19999;-71
2023/01/28 16:51:40;;;;;;;;;;;;;;;;;;4998587;28;19958;-69
2023/01/28 16:54:06;;;;;;;;;;;;;;;;;;5016632;28;19960;-71
2023/01/28 16:56:32;;;;;;;;;;;;;;;;;;5016591;28;20462;-71
2023/01/28 16:58:57;;;;;;;;;;;;;;;;;;5016847;28;19989;-72
2023/01/28 17:01:24;;;;;;;;;;;;;;;;;;5016125;28;20343;-71
2023/01/28 17:03:50;;;;;;;;;;;;;;;;;;5016205;28;19989;-71
2023/01/28 17:06:16;;;;;;;;;;;;;;;;;;5016669;28;19954;-71
2023/01/28 17:08:42;;;;;;;;;;;;;;;;;;5016351;28;19961;-69
2023/01/28 17:11:08;;;;;;;;;;;;;;;;;;5016040;28;20326;-71
2023/01/28 17:13:33;;;;;;;;;;;;;;;;;;5016196;28;20346;-70